sensor_id;sensor_type;location;lat;lon;timestamp;P1;durP1;ratioP1;P2;durP2;ratioP2
4547;SDS011;2286;51.570;7.090;2023-07-13T00:01:11;2.30;;;1.60;;
4547;SDS011;2286;51.570;7.090;2023-07-13T00:03:38;6.23;;;2.87;;
4547;SDS011;2286;51.570;7.090;2023-07-13T00:06:06;6.70;;;2.27;;
4547;SDS011;2286;51.570;7.090;2023-07-13T00:08:34;9.17;;;2.90;;
4547;SDS011;2286;51.570;7.090;2023-07-13T00:11:01;4.43;;;2.47;;
4547;SDS011;2286;51.570;7.090;2023-07-13T00:13:29;5.03;;;2.10;;
4547;SDS011;2286;51.570;7.090;2023-07-13T00:15:58;5.30;;;1.93;;
4547;SDS011;2286;51.570;7.090;2023-07-13T00:18:26;7.73;;;2.33;;
4547;SDS011;2286;51.570;7.090;2023-07-13T00:20:55;5.27;;;1.90;;
4547;SDS011;2286;51.570;7.090;2023-07-13T00:23:30;4.17;;;2.27;;
4547;SDS011;2286;51.570;7.090;2023-07-13T00:25:59;3.33;;;1.63;;
4547;SDS011;2286;51.570;7.090;2023-07-13T00:28:26;6.80;;;2.40;;
4547;SDS011;2286;51.570;7.090;2023-07-13T00:30:53;6.73;;;2.40;;
4547;SDS011;2286;51.570;7.090;2023-07-13T00:33:22;6.97;;;2.33;;
4547;SDS011;2286;51.570;7.090;2023-07-13T00:35:49;5.30;;;2.50;;
4547;SDS011;2286;51.570;7.090;2023-07-13T00:38:16;5.67;;;1.93;;
4547;SDS011;2286;51.570;7.090;2023-07-13T00:40:43;5.37;;;2.60;;
4547;SDS011;2286;51.570;7.090;2023-07-13T00:43:11;9.67;;;2.40;;
4547;SDS011;2286;51.570;7.090;2023-07-13T00:48:45;4.47;;;2.33;;
4547;SDS011;2286;51.570;7.090;2023-07-13T00:51:15;5.00;;;2.40;;
4547;SDS011;2286;51.570;7.090;2023-07-13T00:53:46;4.90;;;1.73;;
4547;SDS011;2286;51.570;7.090;2023-07-13T00:56:13;5.73;;;2.13;;
4547;SDS011;2286;51.570;7.090;2023-07-13T00:58:40;4.23;;;2.37;;
4547;SDS011;2286;51.570;7.090;2023-07-13T01:01:07;8.57;;;2.20;;
4547;SDS011;2286;51.570;7.090;2023-07-13T01:03:34;4.17;;;1.90;;
4547;SDS011;2286;51.570;7.090;2023-07-13T01:06:04;4.30;;;1.83;;
4547;SDS011;2286;51.570;7.090;2023-07-13T01:08:31;4.90;;;2.10;;
4547;SDS011;2286;51.570;7.090;2023-07-13T01:10:58;5.70;;;2.20;;
4547;SDS011;2286;51.570;7.090;2023-07-13T01:13:25;3.10;;;1.77;;
4547;SDS011;2286;51.570;7.090;2023-07-13T01:15:53;5.30;;;1.90;;
4547;SDS011;2286;51.570;7.090;2023-07-13T01:18:23;2.83;;;1.80;;
4547;SDS011;2286;51.570;7.090;2023-07-13T01:20:54;8.47;;;2.00;;
4547;SDS011;2286;51.570;7.090;2023-07-13T01:23:22;6.03;;;2.27;;
4547;SDS011;2286;51.570;7.090;2023-07-13T01:25:50;5.00;;;1.97;;
4547;SDS011;2286;51.570;7.090;2023-07-13T01:28:18;3.97;;;1.97;;
4547;SDS011;2286;51.570;7.090;2023-07-13T01:30:46;4.53;;;1.83;;
4547;SDS011;2286;51.570;7.090;2023-07-13T01:33:14;5.07;;;1.80;;
4547;SDS011;2286;51.570;7.090;2023-07-13T01:35:43;3.40;;;2.13;;
4547;SDS011;2286;51.570;7.090;2023-07-13T01:38:13;3.97;;;2.10;;
4547;SDS011;2286;51.570;7.090;2023-07-13T01:40:41;4.40;;;1.93;;
4547;SDS011;2286;51.570;7.090;2023-07-13T01:43:08;9.23;;;3.60;;
4547;SDS011;2286;51.570;7.090;2023-07-13T01:45:36;8.23;;;2.07;;
4547;SDS011;2286;51.570;7.090;2023-07-13T01:48:03;5.17;;;2.27;;
4547;SDS011;2286;51.570;7.090;2023-07-13T01:50:31;3.97;;;2.00;;
4547;SDS011;2286;51.570;7.090;2023-07-13T01:52:58;7.93;;;2.30;;
4547;SDS011;2286;51.570;7.090;2023-07-13T01:55:27;5.57;;;2.17;;
4547;SDS011;2286;51.570;7.090;2023-07-13T01:57:55;5.23;;;2.00;;
4547;SDS011;2286;51.570;7.090;2023-07-13T02:00:22;3.33;;;1.83;;
4547;SDS011;2286;51.570;7.090;2023-07-13T02:02:49;3.80;;;1.80;;
4547;SDS011;2286;51.570;7.090;2023-07-13T02:05:17;4.73;;;1.50;;
4547;SDS011;2286;51.570;7.090;2023-07-13T02:07:44;4.37;;;2.00;;
4547;SDS011;2286;51.570;7.090;2023-07-13T02:10:11;7.60;;;2.00;;
4547;SDS011;2286;51.570;7.090;2023-07-13T02:12:40;4.53;;;1.80;;
4547;SDS011;2286;51.570;7.090;2023-07-13T02:15:08;7.93;;;2.40;;
4547;SDS011;2286;51.570;7.090;2023-07-13T02:17:36;5.60;;;1.90;;
4547;SDS011;2286;51.570;7.090;2023-07-13T02:20:03;5.23;;;2.00;;
4547;SDS011;2286;51.570;7.090;2023-07-13T02:22:31;6.60;;;2.20;;
4547;SDS011;2286;51.570;7.090;2023-07-13T02:24:58;7.10;;;2.00;;
4547;SDS011;2286;51.570;7.090;2023-07-13T02:27:25;5.53;;;2.47;;
4547;SDS011;2286;51.570;7.090;2023-07-13T02:29:54;3.77;;;1.87;;
4547;SDS011;2286;51.570;7.090;2023-07-13T02:32:21;4.30;;;1.67;;
4547;SDS011;2286;51.570;7.090;2023-07-13T02:34:50;5.53;;;2.10;;
4547;SDS011;2286;51.570;7.090;2023-07-13T02:37:17;2.60;;;1.37;;
4547;SDS011;2286;51.570;7.090;2023-07-13T02:39:45;4.33;;;1.50;;
4547;SDS011;2286;51.570;7.090;2023-07-13T02:42:13;4.50;;;2.00;;
4547;SDS011;2286;51.570;7.090;2023-07-13T02:44:40;7.10;;;1.77;;
4547;SDS011;2286;51.570;7.090;2023-07-13T02:47:08;4.93;;;2.03;;
4547;SDS011;2286;51.570;7.090;2023-07-13T02:49:35;8.23;;;2.13;;
4547;SDS011;2286;51.570;7.090;2023-07-13T02:52:02;12.33;;;3.20;;
4547;SDS011;2286;51.570;7.090;2023-07-13T02:54:30;6.00;;;1.90;;
4547;SDS011;2286;51.570;7.090;2023-07-13T02:56:57;6.80;;;2.27;;
4547;SDS011;2286;51.570;7.090;2023-07-13T02:59:24;5.50;;;2.07;;
4547;SDS011;2286;51.570;7.090;2023-07-13T03:01:51;3.67;;;1.60;;
4547;SDS011;2286;51.570;7.090;2023-07-13T03:04:20;4.83;;;2.30;;
4547;SDS011;2286;51.570;7.090;2023-07-13T03:06:46;5.03;;;1.90;;
4547;SDS011;2286;51.570;7.090;2023-07-13T03:09:13;3.53;;;1.93;;
4547;SDS011;2286;51.570;7.090;2023-07-13T03:11:40;4.77;;;1.70;;
4547;SDS011;2286;51.570;7.090;2023-07-13T03:14:07;5.73;;;2.03;;
4547;SDS011;2286;51.570;7.090;2023-07-13T03:16:35;4.53;;;1.97;;
4547;SDS011;2286;51.570;7.090;2023-07-13T03:19:02;4.80;;;1.93;;
4547;SDS011;2286;51.570;7.090;2023-07-13T03:21:30;7.27;;;1.83;;
4547;SDS011;2286;51.570;7.090;2023-07-13T03:23:58;5.57;;;2.80;;
4547;SDS011;2286;51.570;7.090;2023-07-13T03:26:25;3.03;;;2.10;;
4547;SDS011;2286;51.570;7.090;2023-07-13T03:28:52;3.73;;;2.27;;
4547;SDS011;2286;51.570;7.090;2023-07-13T03:31:20;3.37;;;2.13;;
4547;SDS011;2286;51.570;7.090;2023-07-13T03:33:48;7.97;;;2.43;;
4547;SDS011;2286;51.570;7.090;2023-07-13T03:36:16;4.77;;;2.10;;
4547;SDS011;2286;51.570;7.090;2023-07-13T03:38:47;5.27;;;2.30;;
4547;SDS011;2286;51.570;7.090;2023-07-13T03:41:15;4.07;;;2.53;;
4547;SDS011;2286;51.570;7.090;2023-07-13T03:43:43;7.43;;;2.80;;
4547;SDS011;2286;51.570;7.090;2023-07-13T03:46:10;5.63;;;2.33;;
4547;SDS011;2286;51.570;7.090;2023-07-13T03:48:37;3.87;;;2.00;;
4547;SDS011;2286;51.570;7.090;2023-07-13T03:51:05;3.30;;;2.33;;
4547;SDS011;2286;51.570;7.090;2023-07-13T03:53:32;10.33;;;2.60;;
4547;SDS011;2286;51.570;7.090;2023-07-13T03:56:00;3.30;;;1.80;;
4547;SDS011;2286;51.570;7.090;2023-07-13T03:58:29;2.57;;;2.10;;
4547;SDS011;2286;51.570;7.090;2023-07-13T04:00:59;3.13;;;1.93;;
4547;SDS011;2286;51.570;7.090;2023-07-13T04:03:28;3.83;;;2.10;;
4547;SDS011;2286;51.570;7.090;2023-07-13T04:05:58;2.93;;;2.13;;
4547;SDS011;2286;51.570;7.090;2023-07-13T04:08:26;5.00;;;2.53;;
4547;SDS011;2286;51.570;7.090;2023-07-13T04:10:53;4.43;;;1.83;;
4547;SDS011;2286;51.570;7.090;2023-07-13T04:13:22;4.87;;;2.23;;
4547;SDS011;2286;51.570;7.090;2023-07-13T04:15:50;7.43;;;2.50;;
4547;SDS011;2286;51.570;7.090;2023-07-13T04:18:18;6.33;;;2.40;;
4547;SDS011;2286;51.570;7.090;2023-07-13T04:20:45;7.03;;;1.87;;
4547;SDS011;2286;51.570;7.090;2023-07-13T04:23:12;6.27;;;2.47;;
4547;SDS011;2286;51.570;7.090;2023-07-13T04:25:42;6.50;;;2.50;;
4547;SDS011;2286;51.570;7.090;2023-07-13T04:28:10;6.17;;;2.70;;
4547;SDS011;2286;51.570;7.090;2023-07-13T04:30:38;3.97;;;2.20;;
4547;SDS011;2286;51.570;7.090;2023-07-13T04:33:05;5.90;;;2.20;;
4547;SDS011;2286;51.570;7.090;2023-07-13T04:35:33;5.50;;;2.63;;
4547;SDS011;2286;51.570;7.090;2023-07-13T04:38:01;9.57;;;2.20;;
4547;SDS011;2286;51.570;7.090;2023-07-13T04:40:28;6.50;;;2.40;;
4547;SDS011;2286;51.570;7.090;2023-07-13T04:42:56;9.63;;;2.90;;
4547;SDS011;2286;51.570;7.090;2023-07-13T04:45:23;6.63;;;2.50;;
4547;SDS011;2286;51.570;7.090;2023-07-13T04:47:53;6.23;;;2.57;;
4547;SDS011;2286;51.570;7.090;2023-07-13T04:50:20;6.33;;;2.57;;
4547;SDS011;2286;51.570;7.090;2023-07-13T04:52:48;4.93;;;2.50;;
4547;SDS011;2286;51.570;7.090;2023-07-13T04:55:16;7.10;;;2.57;;
4547;SDS011;2286;51.570;7.090;2023-07-13T04:57:43;4.90;;;2.80;;
4547;SDS011;2286;51.570;7.090;2023-07-13T05:00:11;7.80;;;2.77;;
4547;SDS011;2286;51.570;7.090;2023-07-13T05:02:40;6.60;;;2.30;;
4547;SDS011;2286;51.570;7.090;2023-07-13T05:05:11;7.37;;;3.00;;
4547;SDS011;2286;51.570;7.090;2023-07-13T05:07:38;4.80;;;2.50;;
4547;SDS011;2286;51.570;7.090;2023-07-13T05:10:05;6.67;;;2.80;;
4547;SDS011;2286;51.570;7.090;2023-07-13T05:12:33;4.40;;;2.67;;
4547;SDS011;2286;51.570;7.090;2023-07-13T05:15:00;7.97;;;2.80;;
4547;SDS011;2286;51.570;7.090;2023-07-13T05:17:28;6.93;;;2.47;;
4547;SDS011;2286;51.570;7.090;2023-07-13T05:19:55;10.70;;;3.00;;
4547;SDS011;2286;51.570;7.090;2023-07-13T05:22:23;5.47;;;3.13;;
4547;SDS011;2286;51.570;7.090;2023-07-13T05:24:50;6.30;;;3.20;;
4547;SDS011;2286;51.570;7.090;2023-07-13T05:27:17;11.17;;;3.47;;
4547;SDS011;2286;51.570;7.090;2023-07-13T05:29:44;6.90;;;2.67;;
4547;SDS011;2286;51.570;7.090;2023-07-13T05:32:11;7.37;;;2.73;;
4547;SDS011;2286;51.570;7.090;2023-07-13T05:34:38;5.73;;;2.30;;
4547;SDS011;2286;51.570;7.090;2023-07-13T05:37:05;6.80;;;2.80;;
4547;SDS011;2286;51.570;7.090;2023-07-13T05:39:34;8.93;;;3.27;;
4547;SDS011;2286;51.570;7.090;2023-07-13T05:42:01;6.40;;;2.80;;
4547;SDS011;2286;51.570;7.090;2023-07-13T05:44:28;7.17;;;3.33;;
4547;SDS011;2286;51.570;7.090;2023-07-13T05:46:55;8.77;;;3.87;;
4547;SDS011;2286;51.570;7.090;2023-07-13T05:49:22;5.77;;;2.90;;
4547;SDS011;2286;51.570;7.090;2023-07-13T05:51:50;6.20;;;3.33;;
4547;SDS011;2286;51.570;7.090;2023-07-13T05:54:17;6.00;;;3.40;;
4547;SDS011;2286;51.570;7.090;2023-07-13T05:56:45;8.23;;;3.13;;
4547;SDS011;2286;51.570;7.090;2023-07-13T05:59:12;10.87;;;3.97;;
4547;SDS011;2286;51.570;7.090;2023-07-13T06:01:39;8.83;;;3.37;;
4547;SDS011;2286;51.570;7.090;2023-07-13T06:04:07;7.20;;;3.23;;
4547;SDS011;2286;51.570;7.090;2023-07-13T06:06:34;7.97;;;3.20;;
4547;SDS011;2286;51.570;7.090;2023-07-13T06:09:01;9.97;;;4.03;;
4547;SDS011;2286;51.570;7.090;2023-07-13T06:11:28;10.43;;;3.47;;
4547;SDS011;2286;51.570;7.090;2023-07-13T06:13:57;7.77;;;3.00;;
4547;SDS011;2286;51.570;7.090;2023-07-13T06:16:24;8.53;;;3.20;;
4547;SDS011;2286;51.570;7.090;2023-07-13T06:18:51;7.00;;;3.00;;
4547;SDS011;2286;51.570;7.090;2023-07-13T06:21:19;9.70;;;3.40;;
4547;SDS011;2286;51.570;7.090;2023-07-13T06:23:48;6.50;;;2.97;;
4547;SDS011;2286;51.570;7.090;2023-07-13T06:26:16;9.47;;;3.87;;
4547;SDS011;2286;51.570;7.090;2023-07-13T06:28:44;7.90;;;3.83;;
4547;SDS011;2286;51.570;7.090;2023-07-13T06:31:13;11.03;;;4.23;;
4547;SDS011;2286;51.570;7.090;2023-07-13T06:33:41;12.80;;;4.07;;
4547;SDS011;2286;51.570;7.090;2023-07-13T06:36:09;9.00;;;3.97;;
4547;SDS011;2286;51.570;7.090;2023-07-13T06:38:36;10.93;;;4.57;;
4547;SDS011;2286;51.570;7.090;2023-07-13T06:41:02;6.00;;;3.40;;
4547;SDS011;2286;51.570;7.090;2023-07-13T06:43:30;10.00;;;3.60;;
4547;SDS011;2286;51.570;7.090;2023-07-13T06:45:57;5.90;;;4.17;;
4547;SDS011;2286;51.570;7.090;2023-07-13T06:48:26;10.23;;;4.40;;
4547;SDS011;2286;51.570;7.090;2023-07-13T06:50:54;8.60;;;3.60;;
4547;SDS011;2286;51.570;7.090;2023-07-13T06:53:21;9.30;;;5.07;;
4547;SDS011;2286;51.570;7.090;2023-07-13T06:55:49;9.37;;;4.90;;
4547;SDS011;2286;51.570;7.090;2023-07-13T06:58:16;13.37;;;5.40;;
4547;SDS011;2286;51.570;7.090;2023-07-13T07:00:44;7.30;;;4.30;;
4547;SDS011;2286;51.570;7.090;2023-07-13T07:03:12;9.63;;;4.47;;
4547;SDS011;2286;51.570;7.090;2023-07-13T07:05:40;11.37;;;4.77;;
4547;SDS011;2286;51.570;7.090;2023-07-13T07:08:07;14.27;;;4.47;;
4547;SDS011;2286;51.570;7.090;2023-07-13T07:10:34;15.90;;;5.17;;
4547;SDS011;2286;51.570;7.090;2023-07-13T07:13:02;6.73;;;4.13;;
4547;SDS011;2286;51.570;7.090;2023-07-13T07:15:29;6.47;;;3.90;;
4547;SDS011;2286;51.570;7.090;2023-07-13T07:17:56;9.80;;;4.63;;
4547;SDS011;2286;51.570;7.090;2023-07-13T07:20:23;9.77;;;5.00;;
4547;SDS011;2286;51.570;7.090;2023-07-13T07:22:53;6.40;;;3.57;;
4547;SDS011;2286;51.570;7.090;2023-07-13T07:25:20;5.33;;;3.93;;
4547;SDS011;2286;51.570;7.090;2023-07-13T07:27:47;10.50;;;4.10;;
4547;SDS011;2286;51.570;7.090;2023-07-13T07:30:14;9.30;;;4.13;;
4547;SDS011;2286;51.570;7.090;2023-07-13T07:32:41;12.20;;;3.93;;
4547;SDS011;2286;51.570;7.090;2023-07-13T07:35:08;8.10;;;3.77;;
4547;SDS011;2286;51.570;7.090;2023-07-13T07:37:35;11.00;;;4.30;;
4547;SDS011;2286;51.570;7.090;2023-07-13T07:40:04;9.20;;;4.03;;
4547;SDS011;2286;51.570;7.090;2023-07-13T07:42:33;9.53;;;3.90;;
4547;SDS011;2286;51.570;7.090;2023-07-13T07:45:00;9.70;;;3.97;;
4547;SDS011;2286;51.570;7.090;2023-07-13T07:47:27;7.77;;;4.20;;
4547;SDS011;2286;51.570;7.090;2023-07-13T07:49:54;11.73;;;4.77;;
4547;SDS011;2286;51.570;7.090;2023-07-13T07:52:21;10.00;;;4.20;;
4547;SDS011;2286;51.570;7.090;2023-07-13T07:54:48;15.60;;;4.10;;
4547;SDS011;2286;51.570;7.090;2023-07-13T07:57:17;9.67;;;4.13;;
4547;SDS011;2286;51.570;7.090;2023-07-13T07:59:44;11.73;;;4.27;;
4547;SDS011;2286;51.570;7.090;2023-07-13T08:02:11;5.90;;;3.67;;
4547;SDS011;2286;51.570;7.090;2023-07-13T08:04:38;11.30;;;4.00;;
4547;SDS011;2286;51.570;7.090;2023-07-13T08:07:05;5.30;;;3.50;;
4547;SDS011;2286;51.570;7.090;2023-07-13T08:09:32;6.90;;;3.90;;
4547;SDS011;2286;51.570;7.090;2023-07-13T08:11:59;8.00;;;3.70;;
4547;SDS011;2286;51.570;7.090;2023-07-13T08:14:28;5.20;;;3.47;;
4547;SDS011;2286;51.570;7.090;2023-07-13T08:16:55;9.80;;;3.70;;
4547;SDS011;2286;51.570;7.090;2023-07-13T08:19:22;11.27;;;3.73;;
4547;SDS011;2286;51.570;7.090;2023-07-13T08:21:49;8.33;;;3.67;;
4547;SDS011;2286;51.570;7.090;2023-07-13T08:24:16;9.10;;;3.43;;
4547;SDS011;2286;51.570;7.090;2023-07-13T08:26:44;6.70;;;3.30;;
4547;SDS011;2286;51.570;7.090;2023-07-13T08:29:11;7.13;;;3.20;;
4547;SDS011;2286;51.570;7.090;2023-07-13T08:31:40;10.63;;;4.60;;
4547;SDS011;2286;51.570;7.090;2023-07-13T08:34:07;5.50;;;3.77;;
4547;SDS011;2286;51.570;7.090;2023-07-13T08:36:34;8.33;;;5.20;;
4547;SDS011;2286;51.570;7.090;2023-07-13T08:39:01;9.30;;;5.47;;
4547;SDS011;2286;51.570;7.090;2023-07-13T08:41:28;8.60;;;6.20;;
4547;SDS011;2286;51.570;7.090;2023-07-13T08:43:56;6.40;;;5.63;;
4547;SDS011;2286;51.570;7.090;2023-07-13T08:46:26;8.80;;;5.60;;
4547;SDS011;2286;51.570;7.090;2023-07-13T08:49:01;12.30;;;6.07;;
4547;SDS011;2286;51.570;7.090;2023-07-13T08:51:36;7.63;;;5.13;;
4547;SDS011;2286;51.570;7.090;2023-07-13T08:54:11;9.20;;;5.17;;
4547;SDS011;2286;51.570;7.090;2023-07-13T08:56:46;8.20;;;5.00;;
4547;SDS011;2286;51.570;7.090;2023-07-13T08:59:14;6.40;;;4.73;;
4547;SDS011;2286;51.570;7.090;2023-07-13T09:01:50;10.93;;;5.67;;
4547;SDS011;2286;51.570;7.090;2023-07-13T09:04:28;11.27;;;5.50;;
4547;SDS011;2286;51.570;7.090;2023-07-13T09:07:00;8.33;;;5.40;;
4547;SDS011;2286;51.570;7.090;2023-07-13T09:09:39;8.70;;;5.70;;
4547;SDS011;2286;51.570;7.090;2023-07-13T09:12:18;6.70;;;4.70;;
4547;SDS011;2286;51.570;7.090;2023-07-13T09:14:51;9.50;;;4.67;;
4547;SDS011;2286;51.570;7.090;2023-07-13T09:17:22;8.97;;;5.17;;
4547;SDS011;2286;51.570;7.090;2023-07-13T09:19:56;7.30;;;4.63;;
4547;SDS011;2286;51.570;7.090;2023-07-13T09:22:25;7.67;;;4.53;;
4547;SDS011;2286;51.570;7.090;2023-07-13T09:24:57;8.90;;;4.30;;
4547;SDS011;2286;51.570;7.090;2023-07-13T09:27:32;9.47;;;4.97;;
4547;SDS011;2286;51.570;7.090;2023-07-13T09:30:22;5.80;;;3.87;;
4547;SDS011;2286;51.570;7.090;2023-07-13T09:32:54;6.30;;;4.10;;
4547;SDS011;2286;51.570;7.090;2023-07-13T09:35:26;7.50;;;3.97;;
4547;SDS011;2286;51.570;7.090;2023-07-13T09:37:57;7.07;;;4.70;;
4547;SDS011;2286;51.570;7.090;2023-07-13T09:40:28;11.87;;;4.53;;
4547;SDS011;2286;51.570;7.090;2023-07-13T09:43:02;9.80;;;5.00;;
4547;SDS011;2286;51.570;7.090;2023-07-13T09:45:32;9.83;;;4.90;;
4547;SDS011;2286;51.570;7.090;2023-07-13T09:48:03;8.67;;;3.90;;
4547;SDS011;2286;51.570;7.090;2023-07-13T09:50:34;7.40;;;3.40;;
4547;SDS011;2286;51.570;7.090;2023-07-13T09:53:02;6.80;;;3.40;;
4547;SDS011;2286;51.570;7.090;2023-07-13T09:55:30;4.93;;;3.30;;
4547;SDS011;2286;51.570;7.090;2023-07-13T09:58:02;4.10;;;3.10;;
4547;SDS011;2286;51.570;7.090;2023-07-13T10:00:31;7.40;;;3.47;;
4547;SDS011;2286;51.570;7.090;2023-07-13T10:03:00;4.60;;;2.90;;
4547;SDS011;2286;51.570;7.090;2023-07-13T10:05:35;4.33;;;2.73;;
4547;SDS011;2286;51.570;7.090;2023-07-13T10:08:05;4.07;;;3.10;;
4547;SDS011;2286;51.570;7.090;2023-07-13T10:10:32;4.57;;;3.27;;
4547;SDS011;2286;51.570;7.090;2023-07-13T10:13:01;5.90;;;2.37;;
4547;SDS011;2286;51.570;7.090;2023-07-13T10:15:30;5.50;;;2.97;;
4547;SDS011;2286;51.570;7.090;2023-07-13T10:17:58;4.00;;;3.07;;
4547;SDS011;2286;51.570;7.090;2023-07-13T10:20:26;4.53;;;3.20;;
4547;SDS011;2286;51.570;7.090;2023-07-13T10:22:56;6.70;;;3.40;;
4547;SDS011;2286;51.570;7.090;2023-07-13T10:25:29;7.73;;;3.73;;
4547;SDS011;2286;51.570;7.090;2023-07-13T10:27:58;8.57;;;3.70;;
4547;SDS011;2286;51.570;7.090;2023-07-13T10:30:32;3.40;;;2.90;;
4547;SDS011;2286;51.570;7.090;2023-07-13T10:33:02;5.60;;;3.70;;
4547;SDS011;2286;51.570;7.090;2023-07-13T10:35:36;7.63;;;3.60;;
4547;SDS011;2286;51.570;7.090;2023-07-13T10:38:07;5.37;;;3.23;;
4547;SDS011;2286;51.570;7.090;2023-07-13T10:40:39;4.80;;;3.07;;
4547;SDS011;2286;51.570;7.090;2023-07-13T10:43:11;6.10;;;2.83;;
4547;SDS011;2286;51.570;7.090;2023-07-13T10:45:41;4.40;;;2.40;;
4547;SDS011;2286;51.570;7.090;2023-07-13T10:48:15;7.13;;;2.40;;
4547;SDS011;2286;51.570;7.090;2023-07-13T10:50:44;6.93;;;2.87;;
4547;SDS011;2286;51.570;7.090;2023-07-13T10:53:19;3.60;;;2.63;;
4547;SDS011;2286;51.570;7.090;2023-07-13T10:56:00;4.83;;;2.40;;
4547;SDS011;2286;51.570;7.090;2023-07-13T10:58:34;8.53;;;2.73;;
4547;SDS011;2286;51.570;7.090;2023-07-13T11:01:03;3.10;;;2.23;;
4547;SDS011;2286;51.570;7.090;2023-07-13T11:03:36;5.20;;;2.93;;
4547;SDS011;2286;51.570;7.090;2023-07-13T11:06:05;5.33;;;3.00;;
4547;SDS011;2286;51.570;7.090;2023-07-13T11:08:37;4.63;;;2.53;;
4547;SDS011;2286;51.570;7.090;2023-07-13T11:11:34;5.20;;;2.80;;
4547;SDS011;2286;51.570;7.090;2023-07-13T11:14:04;4.67;;;2.53;;
4547;SDS011;2286;51.570;7.090;2023-07-13T11:16:51;4.57;;;2.43;;
4547;SDS011;2286;51.570;7.090;2023-07-13T11:19:25;3.63;;;2.20;;
4547;SDS011;2286;51.570;7.090;2023-07-13T11:22:16;2.60;;;2.20;;
4547;SDS011;2286;51.570;7.090;2023-07-13T11:24:51;7.60;;;2.53;;
4547;SDS011;2286;51.570;7.090;2023-07-13T11:27:33;4.60;;;2.50;;
4547;SDS011;2286;51.570;7.090;2023-07-13T11:30:07;6.20;;;2.70;;
4547;SDS011;2286;51.570;7.090;2023-07-13T11:32:52;3.83;;;2.57;;
4547;SDS011;2286;51.570;7.090;2023-07-13T11:35:31;3.90;;;2.23;;
4547;SDS011;2286;51.570;7.090;2023-07-13T11:38:01;3.80;;;2.00;;
4547;SDS011;2286;51.570;7.090;2023-07-13T11:40:36;4.83;;;2.30;;
4547;SDS011;2286;51.570;7.090;2023-07-13T11:43:04;10.50;;;3.27;;
4547;SDS011;2286;51.570;7.090;2023-07-13T11:45:33;7.30;;;2.53;;
4547;SDS011;2286;51.570;7.090;2023-07-13T11:48:01;3.70;;;2.40;;
4547;SDS011;2286;51.570;7.090;2023-07-13T11:50:28;3.27;;;1.87;;
4547;SDS011;2286;51.570;7.090;2023-07-13T11:52:57;3.77;;;2.20;;
4547;SDS011;2286;51.570;7.090;2023-07-13T11:55:25;5.67;;;2.93;;
4547;SDS011;2286;51.570;7.090;2023-07-13T11:57:57;3.10;;;2.53;;
4547;SDS011;2286;51.570;7.090;2023-07-13T12:00:28;4.10;;;2.50;;
4547;SDS011;2286;51.570;7.090;2023-07-13T12:02:56;3.47;;;2.13;;
4547;SDS011;2286;51.570;7.090;2023-07-13T12:05:27;4.63;;;2.70;;
4547;SDS011;2286;51.570;7.090;2023-07-13T12:07:57;3.23;;;2.17;;
4547;SDS011;2286;51.570;7.090;2023-07-13T12:10:25;4.00;;;2.30;;
4547;SDS011;2286;51.570;7.090;2023-07-13T12:12:55;4.63;;;2.67;;
4547;SDS011;2286;51.570;7.090;2023-07-13T12:15:28;3.53;;;2.10;;
4547;SDS011;2286;51.570;7.090;2023-07-13T12:18:03;2.17;;;1.97;;
4547;SDS011;2286;51.570;7.090;2023-07-13T12:20:37;4.57;;;2.10;;
4547;SDS011;2286;51.570;7.090;2023-07-13T12:23:05;6.03;;;2.23;;
4547;SDS011;2286;51.570;7.090;2023-07-13T12:25:41;5.40;;;2.30;;
4547;SDS011;2286;51.570;7.090;2023-07-13T12:28:21;7.13;;;1.80;;
4547;SDS011;2286;51.570;7.090;2023-07-13T12:30:49;3.60;;;2.13;;
4547;SDS011;2286;51.570;7.090;2023-07-13T12:33:23;6.97;;;2.20;;
4547;SDS011;2286;51.570;7.090;2023-07-13T12:35:54;2.83;;;1.60;;
4547;SDS011;2286;51.570;7.090;2023-07-13T12:38:24;3.33;;;2.07;;
4547;SDS011;2286;51.570;7.090;2023-07-13T12:40:51;5.13;;;1.93;;
4547;SDS011;2286;51.570;7.090;2023-07-13T12:43:21;4.43;;;1.93;;
4547;SDS011;2286;51.570;7.090;2023-07-13T12:45:55;2.87;;;2.23;;
4547;SDS011;2286;51.570;7.090;2023-07-13T12:48:24;4.50;;;2.20;;
4547;SDS011;2286;51.570;7.090;2023-07-13T12:50:51;2.50;;;2.00;;
4547;SDS011;2286;51.570;7.090;2023-07-13T12:53:22;3.90;;;1.97;;
4547;SDS011;2286;51.570;7.090;2023-07-13T12:55:54;4.60;;;2.50;;
4547;SDS011;2286;51.570;7.090;2023-07-13T12:58:26;5.87;;;2.43;;
4547;SDS011;2286;51.570;7.090;2023-07-13T13:00:55;6.27;;;2.50;;
4547;SDS011;2286;51.570;7.090;2023-07-13T13:03:25;5.80;;;1.80;;
4547;SDS011;2286;51.570;7.090;2023-07-13T13:05:57;5.27;;;2.07;;
4547;SDS011;2286;51.570;7.090;2023-07-13T13:08:28;5.27;;;2.40;;
4547;SDS011;2286;51.570;7.090;2023-07-13T13:10:55;2.17;;;1.97;;
4547;SDS011;2286;51.570;7.090;2023-07-13T13:13:22;3.70;;;2.50;;
4547;SDS011;2286;51.570;7.090;2023-07-13T13:15:51;2.83;;;2.63;;
4547;SDS011;2286;51.570;7.090;2023-07-13T13:18:19;7.03;;;4.00;;
4547;SDS011;2286;51.570;7.090;2023-07-13T13:20:48;6.50;;;3.47;;
4547;SDS011;2286;51.570;7.090;2023-07-13T13:23:16;7.57;;;4.50;;
4547;SDS011;2286;51.570;7.090;2023-07-13T13:25:45;6.70;;;3.73;;
4547;SDS011;2286;51.570;7.090;2023-07-13T13:28:14;4.60;;;3.67;;
4547;SDS011;2286;51.570;7.090;2023-07-13T13:30:43;6.47;;;4.60;;
4547;SDS011;2286;51.570;7.090;2023-07-13T13:33:16;4.93;;;4.40;;
4547;SDS011;2286;51.570;7.090;2023-07-13T13:35:44;6.30;;;5.50;;
4547;SDS011;2286;51.570;7.090;2023-07-13T13:38:12;6.10;;;5.60;;
4547;SDS011;2286;51.570;7.090;2023-07-13T13:40:40;9.10;;;6.73;;
4547;SDS011;2286;51.570;7.090;2023-07-13T13:43:13;7.10;;;6.40;;
4547;SDS011;2286;51.570;7.090;2023-07-13T13:45:42;9.20;;;6.80;;
4547;SDS011;2286;51.570;7.090;2023-07-13T13:48:14;7.10;;;6.50;;
4547;SDS011;2286;51.570;7.090;2023-07-13T13:50:43;6.90;;;6.30;;
4547;SDS011;2286;51.570;7.090;2023-07-13T13:53:11;7.80;;;6.33;;
4547;SDS011;2286;51.570;7.090;2023-07-13T13:55:39;5.33;;;4.83;;
4547;SDS011;2286;51.570;7.090;2023-07-13T13:58:07;6.63;;;6.03;;
4547;SDS011;2286;51.570;7.090;2023-07-13T14:00:35;7.10;;;5.30;;
4547;SDS011;2286;51.570;7.090;2023-07-13T14:03:03;6.27;;;5.10;;
4547;SDS011;2286;51.570;7.090;2023-07-13T14:05:33;4.80;;;4.40;;
4547;SDS011;2286;51.570;7.090;2023-07-13T14:08:00;4.90;;;4.40;;
4547;SDS011;2286;51.570;7.090;2023-07-13T14:10:27;5.10;;;4.60;;
4547;SDS011;2286;51.570;7.090;2023-07-13T14:12:54;5.00;;;4.00;;
4547;SDS011;2286;51.570;7.090;2023-07-13T14:15:24;4.67;;;4.20;;
4547;SDS011;2286;51.570;7.090;2023-07-13T14:17:52;5.43;;;4.53;;
4547;SDS011;2286;51.570;7.090;2023-07-13T14:20:20;5.43;;;4.77;;
4547;SDS011;2286;51.570;7.090;2023-07-13T14:22:50;5.10;;;4.57;;
4547;SDS011;2286;51.570;7.090;2023-07-13T14:25:18;6.50;;;4.20;;
4547;SDS011;2286;51.570;7.090;2023-07-13T14:27:47;4.97;;;4.57;;
4547;SDS011;2286;51.570;7.090;2023-07-13T14:30:18;5.20;;;4.70;;
4547;SDS011;2286;51.570;7.090;2023-07-13T14:32:47;5.20;;;4.10;;
4547;SDS011;2286;51.570;7.090;2023-07-13T14:35:16;4.40;;;4.00;;
4547;SDS011;2286;51.570;7.090;2023-07-13T14:37:48;5.83;;;4.27;;
4547;SDS011;2286;51.570;7.090;2023-07-13T14:40:17;4.70;;;3.73;;
4547;SDS011;2286;51.570;7.090;2023-07-13T14:42:50;5.43;;;3.77;;
4547;SDS011;2286;51.570;7.090;2023-07-13T14:45:17;3.17;;;2.87;;
4547;SDS011;2286;51.570;7.090;2023-07-13T14:47:45;3.67;;;3.33;;
4547;SDS011;2286;51.570;7.090;2023-07-13T14:50:14;4.40;;;3.50;;
4547;SDS011;2286;51.570;7.090;2023-07-13T14:52:43;2.80;;;2.60;;
4547;SDS011;2286;51.570;7.090;2023-07-13T14:55:12;4.23;;;2.90;;
4547;SDS011;2286;51.570;7.090;2023-07-13T14:57:41;4.43;;;2.33;;
4547;SDS011;2286;51.570;7.090;2023-07-13T15:00:14;6.07;;;2.70;;
4547;SDS011;2286;51.570;7.090;2023-07-13T15:02:43;2.23;;;1.90;;
4547;SDS011;2286;51.570;7.090;2023-07-13T15:05:13;3.80;;;2.80;;
4547;SDS011;2286;51.570;7.090;2023-07-13T15:07:42;4.07;;;2.50;;
4547;SDS011;2286;51.570;7.090;2023-07-13T15:10:15;4.87;;;2.57;;
4547;SDS011;2286;51.570;7.090;2023-07-13T15:12:44;4.63;;;1.90;;
4547;SDS011;2286;51.570;7.090;2023-07-13T15:15:11;2.63;;;2.27;;
4547;SDS011;2286;51.570;7.090;2023-07-13T15:17:39;2.63;;;2.40;;
4547;SDS011;2286;51.570;7.090;2023-07-13T15:20:18;4.27;;;2.53;;
4547;SDS011;2286;51.570;7.090;2023-07-13T15:22:48;2.80;;;2.50;;
4547;SDS011;2286;51.570;7.090;2023-07-13T15:25:19;5.87;;;3.00;;
4547;SDS011;2286;51.570;7.090;2023-07-13T15:27:49;5.80;;;2.67;;
4547;SDS011;2286;51.570;7.090;2023-07-13T15:30:16;4.00;;;2.63;;